Time;durP1;ratioP1;P1;durP2;ratioP2;P2;SDS_P1;SDS_P2;PMS_P1;PMS_P2;Temp;Humidity;BMP_temperature;BMP_pressure;BME280_temperature;BME280_humidity;BME280_pressure;Samples;Min_cycle;Max_cycle;Signal;HPM_P1;HPM_P2
2022/12/06 00:01:41;;;;;;;5.70;1.98;;;5.90;99.90;;;;;;5044482;28;20309;-80
2022/12/06 00:04:10;;;;;;;6.53;2.13;;;5.80;99.90;;;;;;5042952;28;20167;-80
2022/12/06 00:06:42;;;;;;;2.78;1.30;;;5.80;99.90;;;;;;5042055;28;20155;-83
2022/12/06 00:09:15;;;;;;;7.40;2.45;;;5.80;99.90;;;;;;5044049;28;20048;-82
2022/12/06 00:11:41;;;;;;;4.93;1.42;;;5.80;99.90;;;;;;5044192;28;20072;-82
2022/12/06 00:14:07;;;;;;;4.32;1.80;;;5.80;99.90;;;;;;5041376;28;20569;-79
2022/12/06 00:16:34;;;;;;;2.75;1.52;;;5.80;99.90;;;;;;5043374;28;20458;-81
2022/12/06 00:19:00;;;;;;;4.70;2.40;;;5.80;99.90;;;;;;5042116;28;20052;-79
2022/12/06 00:21:34;;;;;;;2.40;1.92;;;5.80;99.90;;;;;;5042592;28;20045;-80
2022/12/06 00:24:21;;;;;;;4.53;1.95;;;5.80;99.90;;;;;;5043212;28;20151;-80
2022/12/06 00:26:48;;;;;;;4.95;2.22;;;5.70;99.90;;;;;;5042782;28;20076;-78
2022/12/06 00:29:20;;;;;;;4.20;1.95;;;5.70;99.90;;;;;;5041884;28;20045;-82
2022/12/06 00:31:46;;;;;;;6.20;1.20;;;5.70;99.90;;;;;;5042905;28;20044;-81
2022/12/06 00:34:12;;;;;;;2.67;1.17;;;5.70;99.90;;;;;;5042905;28;20040;-76
2022/12/06 00:36:39;;;;;;;1.58;1.05;;;5.70;99.90;;;;;;5042319;28;20506;-82
2022/12/06 00:39:14;;;;;;;25.88;1.88;;;5.70;99.90;;;;;;5041676;28;20503;-79
2022/12/06 00:41:40;;;;;;;5.82;2.15;;;5.70;99.90;;;;;;5024822;28;20336;-80
2022/12/06 00:44:06;;;;;;;0.85;0.70;;;5.70;99.90;;;;;;5041553;28;20045;-77
2022/12/06 00:46:33;;;;;;;15.65;1.95;;;5.70;99.90;;;;;;5042362;28;20037;-80
2022/12/06 00:49:00;;;;;;;1.65;1.55;;;5.70;99.90;;;;;;5043021;28;20112;-81
2022/12/06 00:51:28;;;;;;;1.15;1.00;;;5.70;99.90;;;;;;5042195;28;20072;-80
2022/12/06 00:53:54;;;;;;;0.98;0.77;;;5.70;99.90;;;;;;5042391;28;20120;-78
2022/12/06 00:56:20;;;;;;;3.08;1.15;;;5.70;99.90;;;;;;5043677;28;20199;-82
2022/12/06 00:58:46;;;;;;;0.70;0.70;;;5.70;99.90;;;;;;5040066;28;20597;-78
2022/12/06 01:01:20;;;;;;;9.57;1.83;;;5.70;99.90;;;;;;5041213;28;20045;-83
2022/12/06 01:03:52;;;;;;;3.97;1.50;;;5.70;99.90;;;;;;5043680;28;20040;-79
2022/12/06 01:06:21;;;;;;;10.48;1.30;;;5.70;99.90;;;;;;5042164;28;20552;-83
2022/12/06 01:08:47;;;;;;;2.95;2.10;;;5.70;99.90;;;;;;5042641;28;20041;-83
2022/12/06 01:11:14;;;;;;;2.42;1.13;;;5.70;99.90;;;;;;5041612;28;20044;-75
2022/12/06 01:13:40;;;;;;;2.28;1.90;;;5.70;99.90;;;;;;5042199;28;20045;-83
2022/12/06 01:16:07;;;;;;;2.80;1.92;;;5.70;99.90;;;;;;5041353;28;20063;-75
2022/12/06 01:18:33;;;;;;;2.10;1.90;;;5.70;99.90;;;;;;5041502;28;20044;-79
2022/12/06 01:21:04;;;;;;;2.00;1.85;;;5.70;99.90;;;;;;5040994;28;20057;-82
2022/12/06 01:23:30;;;;;;;4.03;2.40;;;5.70;99.90;;;;;;5041478;28;20099;-77
2022/12/06 01:25:56;;;;;;;2.00;1.25;;;5.70;99.90;;;;;;5041747;28;20041;-76
2022/12/06 01:28:21;;;;;;;1.30;1.20;;;5.70;99.90;;;;;;5041125;28;20067;-80
2022/12/06 01:30:47;;;;;;;2.70;1.92;;;5.70;99.90;;;;;;5040987;28;20495;-81
2022/12/06 01:33:12;;;;;;;9.30;1.70;;;5.70;99.90;;;;;;5041727;28;20438;-80
2022/12/06 01:35:40;;;;;;;2.78;2.03;;;5.70;99.90;;;;;;5041276;28;20802;-80
2022/12/06 01:38:06;;;;;;;2.47;1.85;;;5.70;99.90;;;;;;5023771;28;20132;-83
2022/12/06 01:40:37;;;;;;;3.45;2.40;;;5.70;99.90;;;;;;5041901;28;20784;-81
2022/12/06 01:43:03;;;;;;;1.33;1.20;;;5.70;99.90;;;;;;5022622;28;20043;-78
2022/12/06 01:45:28;;;;;;;2.58;1.55;;;5.70;99.90;;;;;;5040511;28;20048;-81
2022/12/06 01:47:54;;;;;;;1.50;1.40;;;5.70;99.90;;;;;;5040945;28;20266;-79
2022/12/06 01:50:29;;;;;;;8.38;2.05;;;5.70;99.90;;;;;;5041779;28;20042;-82
2022/12/06 01:53:02;;;;;;;3.63;1.60;;;5.70;99.90;;;;;;5040339;28;20480;-83
2022/12/06 01:55:33;;;;;;;4.57;2.78;;;5.70;99.90;;;;;;5040553;28;20045;-83
2022/12/06 01:58:06;;;;;;;4.60;1.70;;;5.70;99.90;;;;;;5041410;28;20060;-83
2022/12/06 02:00:31;;;;;;;22.42;2.47;;;5.70;99.90;;;;;;5045726;28;20598;-83
2022/12/06 02:03:00;;;;;;;3.33;1.40;;;5.70;99.90;;;;;;5045677;28;20127;-80
2022/12/06 02:05:26;;;;;;;8.75;2.47;;;5.70;99.90;;;;;;5127167;22;20159;-83
2022/12/06 02:07:53;;;;;;;4.53;2.17;;;5.70;99.90;;;;;;5065731;28;20056;-78
2022/12/06 02:10:19;;;;;;;3.72;1.15;;;5.70;99.90;;;;;;5067241;28;20048;-76
2022/12/06 02:12:53;;;;;;;4.15;1.60;;;5.60;99.90;;;;;;5066448;28;20040;-82
2022/12/06 02:15:24;;;;;;;1.33;1.23;;;5.60;99.90;;;;;;5065768;28;20059;-76
2022/12/06 02:18:01;;;;;;;1.45;1.33;;;5.70;99.90;;;;;;5066130;28;20040;-78
2022/12/06 02:20:35;;;;;;;6.25;2.13;;;5.60;99.90;;;;;;5066384;28;20052;-82
2022/12/06 02:23:35;;;;;;;2.85;2.00;;;5.70;99.90;;;;;;5066332;28;20044;-82
2022/12/06 02:26:10;;;;;;;2.20;1.92;;;5.60;99.90;;;;;;5048453;28;20124;-80
2022/12/06 02:28:54;;;;;;;5.25;2.97;;;5.60;99.90;;;;;;5065469;28;20492;-79
2022/12/06 02:31:30;;;;;;;4.70;2.03;;;5.60;99.90;;;;;;5066748;28;20063;-83
2022/12/06 02:34:04;;;;;;;2.15;1.40;;;5.70;99.90;;;;;;5066334;28;20064;-82
2022/12/06 02:36:46;;;;;;;3.20;1.92;;;5.60;99.90;;;;;;5066477;28;20041;-81
2022/12/06 02:39:23;;;;;;;1.67;1.23;;;5.60;99.90;;;;;;5066020;28;20040;-80
2022/12/06 02:42:01;;;;;;;3.58;2.58;;;5.60;99.90;;;;;;5065967;28;20052;-78
2022/12/06 02:44:41;;;;;;;4.10;1.95;;;5.60;99.90;;;;;;5065537;28;20068;-84
2022/12/06 02:47:10;;;;;;;3.05;1.73;;;5.60;99.90;;;;;;5066054;28;20044;-78
2022/12/06 02:49:43;;;;;;;2.05;1.70;;;5.60;99.90;;;;;;5066563;28;20041;-79
2022/12/06 02:52:12;;;;;;;1.98;1.70;;;5.60;99.90;;;;;;5066003;28;20043;-80
2022/12/06 02:54:40;;;;;;;3.13;1.63;;;5.60;99.90;;;;;;5064751;28;20120;-84
2022/12/06 02:57:06;;;;;;;2.38;1.23;;;5.60;99.90;;;;;;5063651;28;20075;-80
2022/12/06 02:59:32;;;;;;;3.28;2.20;;;5.60;99.90;;;;;;5066194;28;20500;-83
2022/12/06 03:02:01;;;;;;;3.85;2.05;;;5.60;99.90;;;;;;5065704;28;20032;-83
2022/12/06 03:05:00;;;;;;;2.60;1.40;;;5.60;99.90;;;;;;5065455;28;20068;-81
2022/12/06 03:07:42;;;;;;;1.48;0.95;;;5.60;99.90;;;;;;5065922;28;20052;-83
2022/12/06 03:10:26;;;;;;;1.38;1.27;;;5.60;99.90;;;;;;5062718;28;20052;-78
2022/12/06 03:13:00;;;;;;;4.97;1.77;;;5.50;99.90;;;;;;5063980;28;20090;-83
2022/12/06 03:15:32;;;;;;;4.40;1.85;;;5.50;99.90;;;;;;5064651;28;20044;-78
2022/12/06 03:18:17;;;;;;;2.40;1.73;;;5.50;99.90;;;;;;5064449;28;20128;-82
2022/12/06 03:20:52;;;;;;;4.90;2.25;;;5.50;99.90;;;;;;5065653;28;20504;-83
2022/12/06 03:23:29;;;;;;;3.72;2.15;;;5.50;99.90;;;;;;5065711;28;20041;-83
2022/12/06 03:25:58;;;;;;;1.63;1.52;;;5.50;99.90;;;;;;5065658;28;20043;-83
2022/12/06 03:28:25;;;;;;;2.67;1.55;;;5.50;99.90;;;;;;5063387;28;20533;-82
2022/12/06 03:30:55;;;;;;;3.38;1.48;;;5.50;99.90;;;;;;5065402;28;20052;-76
2022/12/06 03:33:25;;;;;;;3.58;3.05;;;5.50;99.90;;;;;;5065511;28;20049;-76
2022/12/06 03:35:54;;;;;;;2.22;1.80;;;5.50;99.90;;;;;;5065243;28;20049;-84
2022/12/06 03:38:32;;;;;;;1.48;1.27;;;5.50;99.90;;;;;;5065123;28;20074;-82
2022/12/06 03:41:02;;;;;;;1.17;0.85;;;5.50;99.90;;;;;;5063611;28;20051;-84
2022/12/06 03:43:28;;;;;;;1.73;1.20;;;5.50;99.90;;;;;;5063229;28;20040;-84
2022/12/06 03:46:09;;;;;;;3.22;2.15;;;5.50;99.90;;;;;;5065251;28;20102;-81
2022/12/06 03:48:42;;;;;;;1.23;0.70;;;5.50;99.90;;;;;;5063534;28;20060;-84
2022/12/06 03:51:14;;;;;;;1.67;0.85;;;5.50;99.90;;;;;;5063296;28;20052;-82
2022/12/06 03:53:52;;;;;;;1.90;1.10;;;5.50;99.90;;;;;;5063357;28;20045;-78
2022/12/06 03:56:18;;;;;;;1.73;1.63;;;5.50;99.90;;;;;;5065240;28;20044;-83
2022/12/06 03:58:44;;;;;;;2.60;0.80;;;5.50;99.90;;;;;;5064373;28;20048;-80
2022/12/06 04:01:10;;;;;;;1.60;1.50;;;5.50;99.90;;;;;;5064892;28;20086;-83
2022/12/06 04:03:35;;;;;;;1.10;0.60;;;5.50;99.90;;;;;;5064800;28;20432;-79
2022/12/06 04:06:02;;;;;;;5.32;1.63;;;5.40;99.90;;;;;;5063928;28;20053;-84
2022/12/06 04:08:28;;;;;;;0.60;0.50;;;5.50;99.90;;;;;;5064648;28;20040;-83
2022/12/06 04:10:53;;;;;;;0.77;0.60;;;5.50;99.90;;;;;;5064780;28;20044;-79
2022/12/06 04:13:19;;;;;;;2.83;0.85;;;5.50;99.90;;;;;;5063356;28;20545;-81
2022/12/06 04:15:45;;;;;;;2.97;0.50;;;5.50;99.90;;;;;;5064986;28;20032;-80
2022/12/06 04:18:13;;;;;;;1.73;1.13;;;5.50;99.90;;;;;;5063614;28;20508;-81
2022/12/06 04:23:33;;;;;;;3.40;0.65;;;5.40;99.90;;;;;;5063947;28;20045;-79
2022/12/06 04:25:59;;;;;;;0.52;0.47;;;5.40;99.90;;;;;;5063010;28;20052;-79
2022/12/06 04:39:23;;;;;;;0.98;0.70;;;5.40;99.90;;;;;;5063069;28;20188;-79
2022/12/06 04:44:33;;;;;;;1.58;0.77;;;5.40;99.90;;;;;;5063812;28;20099;-79
2022/12/06 04:46:59;;;;;;;1.42;0.77;;;5.40;99.90;;;;;;5063892;28;20076;-84
2022/12/06 04:49:25;;;;;;;1.85;0.70;;;5.40;99.90;;;;;;5063330;28;20099;-82
2022/12/06 04:51:52;;;;;;;0.85;0.47;;;5.40;99.90;;;;;;5063971;28;20036;-79
2022/12/06 04:54:19;;;;;;;2.03;1.10;;;5.40;99.90;;;;;;5064060;28;20127;-82
2022/12/06 04:56:45;;;;;;;0.45;0.43;;;5.40;99.90;;;;;;5063527;28;20071;-78
2022/12/06 04:59:10;;;;;;;3.80;1.65;;;5.40;99.90;;;;;;5062538;28;20482;-83
2022/12/06 05:01:37;;;;;;;2.45;1.23;;;5.40;99.90;;;;;;5063771;28;20127;-79
2022/12/06 05:04:02;;;;;;;1.48;1.38;;;5.40;99.90;;;;;;5063479;28;20480;-84
2022/12/06 05:06:28;;;;;;;2.22;1.02;;;5.40;99.90;;;;;;5063029;28;20051;-81
2022/12/06 05:08:54;;;;;;;1.20;0.70;;;5.40;99.90;;;;;;5063388;28;20499;-79
2022/12/06 05:11:19;;;;;;;2.80;0.88;;;5.40;99.90;;;;;;5062209;28;20595;-83
2022/12/06 05:13:45;;;;;;;1.88;1.60;;;5.40;99.90;;;;;;5063608;28;20394;-81
2022/12/06 05:16:11;;;;;;;2.45;1.00;;;5.30;99.90;;;;;;5062814;28;20050;-82
2022/12/06 05:18:37;;;;;;;2.17;1.52;;;5.30;99.90;;;;;;5063580;28;20056;-81
2022/12/06 05:21:05;;;;;;;1.23;1.05;;;5.30;99.90;;;;;;5062949;28;20548;-79
2022/12/06 05:23:33;;;;;;;2.63;1.55;;;5.30;99.90;;;;;;5063149;28;20040;-81
2022/12/06 05:26:00;;;;;;;1.38;0.93;;;5.30;99.90;;;;;;5063371;28;20422;-80
2022/12/06 05:28:26;;;;;;;1.73;1.05;;;5.30;99.90;;;;;;5062828;28;20079;-84
2022/12/06 05:30:52;;;;;;;3.05;1.23;;;5.20;99.90;;;;;;5061693;28;20044;-79
2022/12/06 05:33:17;;;;;;;5.22;1.67;;;5.20;99.90;;;;;;5063035;28;20102;-83
2022/12/06 05:35:43;;;;;;;7.13;1.75;;;5.20;99.90;;;;;;5063113;28;20052;-78
2022/12/06 05:38:08;;;;;;;1.55;0.52;;;5.10;99.90;;;;;;5063150;28;20583;-83
2022/12/06 05:40:34;;;;;;;1.00;0.90;;;5.00;99.90;;;;;;5061755;28;20041;-79
2022/12/06 05:43:00;;;;;;;2.17;1.02;;;5.00;99.90;;;;;;5061370;28;20058;-84
2022/12/06 05:45:25;;;;;;;1.40;0.80;;;4.90;99.90;;;;;;5060402;28;20505;-80
2022/12/06 05:48:17;;;;;;;1.88;0.47;;;4.80;99.90;;;;;;5044385;28;20090;-84
2022/12/06 05:50:45;;;;;;;0.57;0.57;;;4.80;99.90;;;;;;5062305;28;20051;-82
2022/12/06 05:53:11;;;;;;;0.43;0.43;;;4.70;99.90;;;;;;5063017;28;20093;-82
2022/12/06 05:55:36;;;;;;;1.60;1.10;;;4.60;99.90;;;;;;5062932;28;20542;-78
2022/12/06 05:58:02;;;;;;;0.88;0.80;;;4.50;99.90;;;;;;5062308;28;20183;-75
2022/12/06 06:00:28;;;;;;;0.50;0.50;;;4.50;99.90;;;;;;5062862;28;20051;-78
2022/12/06 06:02:53;;;;;;;1.25;0.85;;;4.40;99.90;;;;;;5062541;28;20041;-83
2022/12/06 06:05:19;;;;;;;1.48;1.08;;;4.40;99.90;;;;;;5062720;28;20045;-77
2022/12/06 06:07:45;;;;;;;1.13;0.80;;;4.30;99.90;;;;;;5063794;28;20037;-83
2022/12/06 06:10:14;;;;;;;1.05;0.75;;;4.30;99.90;;;;;;5062099;28;20068;-78
2022/12/06 06:12:41;;;;;;;0.57;0.57;;;4.20;99.90;;;;;;5062489;28;20041;-80
2022/12/06 06:15:07;;;;;;;2.70;0.95;;;4.20;99.90;;;;;;5061333;28;20486;-80
2022/12/06 06:17:34;;;;;;;9.77;1.17;;;4.20;99.90;;;;;;5044916;28;20055;-80
2022/12/06 06:20:04;;;;;;;1.38;0.90;;;4.20;99.90;;;;;;5042750;28;20032;-77
2022/12/06 06:22:31;;;;;;;5.45;1.17;;;4.10;99.90;;;;;;5054688;28;20037;-77
2022/12/06 06:24:56;;;;;;;1.08;0.75;;;4.10;99.90;;;;;;5051236;28;20045;-81
2022/12/06 06:27:22;;;;;;;2.97;1.27;;;4.00;99.90;;;;;;5058727;28;20396;-82
2022/12/06 06:29:47;;;;;;;1.40;1.30;;;4.00;99.90;;;;;;5059487;28;20108;-76
2022/12/06 06:32:13;;;;;;;4.13;1.02;;;4.00;99.90;;;;;;5059402;28;20047;-84
2022/12/06 06:34:39;;;;;;;1.48;1.02;;;4.00;99.90;;;;;;5059779;28;20052;-78
2022/12/06 06:37:04;;;;;;;0.85;0.82;;;4.00;99.90;;;;;;5058488;28;20425;-84
2022/12/06 06:39:30;;;;;;;3.45;1.23;;;3.90;99.90;;;;;;5041502;28;20052;-80
2022/12/06 06:41:55;;;;;;;2.30;1.65;;;3.90;99.90;;;;;;5059532;28;20091;-83
2022/12/06 06:44:21;;;;;;;8.25;2.10;;;3.90;99.90;;;;;;5056363;28;20040;-78
2022/12/06 06:46:46;;;;;;;1.67;1.10;;;3.80;99.90;;;;;;5059886;28;20036;-84
2022/12/06 06:49:12;;;;;;;3.70;1.98;;;3.80;99.90;;;;;;5066141;28;20607;-81
2022/12/06 06:51:38;;;;;;;5.30;2.75;;;3.80;99.90;;;;;;5060600;28;20079;-82
2022/12/06 06:54:03;;;;;;;1.13;0.98;;;3.70;99.90;;;;;;5063930;28;20383;-83
2022/12/06 06:56:29;;;;;;;2.70;2.15;;;3.80;99.90;;;;;;5061704;28;20056;-80
2022/12/06 06:58:54;;;;;;;3.17;2.05;;;3.80;99.90;;;;;;5057772;28;20041;-90
2022/12/06 07:01:22;;;;;;;1.10;0.68;;;3.80;99.90;;;;;;5061285;28;20129;-85
2022/12/06 07:03:48;;;;;;;4.10;2.15;;;3.80;99.90;;;;;;5065091;28;20036;-83
2022/12/06 07:06:13;;;;;;;1.92;1.30;;;3.80;99.90;;;;;;5059498;28;20055;-78
2022/12/06 07:08:40;;;;;;;4.20;2.17;;;3.80;99.90;;;;;;5064763;28;20420;-81
2022/12/06 07:11:06;;;;;;;4.68;2.05;;;3.80;99.90;;;;;;5063760;28;20041;-78
2022/12/06 07:13:32;;;;;;;2.88;1.17;;;3.80;99.90;;;;;;5063863;28;20123;-80
2022/12/06 07:15:58;;;;;;;2.28;1.98;;;3.80;99.90;;;;;;5064364;28;20135;-82
2022/12/06 07:18:24;;;;;;;5.03;1.98;;;3.80;99.90;;;;;;5062853;28;20055;-79
2022/12/06 07:21:02;;;;;;;12.13;2.47;;;3.80;99.90;;;;;;5063083;28;20043;-80
2022/12/06 07:23:29;;;;;;;1.67;1.23;;;3.80;99.90;;;;;;5063078;28;20479;-81
2022/12/06 07:26:08;;;;;;;4.45;2.53;;;3.80;99.90;;;;;;5063386;28;20102;-81
2022/12/06 07:28:35;;;;;;;4.45;2.22;;;3.80;99.90;;;;;;5063174;28;20376;-81
2022/12/06 07:31:21;;;;;;;3.63;2.10;;;3.80;99.90;;;;;;5062924;28;20041;-76
2022/12/06 07:33:50;;;;;;;4.88;1.80;;;3.80;99.90;;;;;;5063825;28;20262;-78
2022/12/06 07:36:16;;;;;;;5.10;2.75;;;3.90;99.90;;;;;;5063367;28;20040;-78
2022/12/06 07:38:45;;;;;;;2.83;1.92;;;3.90;99.90;;;;;;5063377;28;20597;-81
2022/12/06 07:46:42;;;;;;;6.32;3.10;;;4.00;99.90;;;;;;5063508;28;20075;-81
2022/12/06 07:49:08;;;;;;;3.80;1.83;;;4.00;99.90;;;;;;5063287;28;20518;-79
2022/12/06 07:51:33;;;;;;;5.60;2.70;;;4.00;99.90;;;;;;5063640;28;20052;-82
2022/12/06 07:54:00;;;;;;;2.58;1.38;;;4.10;99.90;;;;;;5044911;28;20053;-78
2022/12/06 07:56:26;;;;;;;5.43;1.60;;;4.10;99.90;;;;;;5062498;28;20036;-79
2022/12/06 07:58:51;;;;;;;3.38;2.60;;;4.20;99.90;;;;;;5062335;28;20556;-82
2022/12/06 08:01:17;;;;;;;4.40;1.90;;;4.20;99.90;;;;;;5063688;28;20543;-81
2022/12/06 08:03:43;;;;;;;4.38;2.30;;;4.20;99.90;;;;;;5063002;28;20067;-83
2022/12/06 08:06:09;;;;;;;2.92;2.22;;;4.20;99.90;;;;;;5061717;28;20060;-78
2022/12/06 08:08:35;;;;;;;4.05;3.45;;;4.20;99.90;;;;;;5063561;28;20048;-83
2022/12/06 08:11:02;;;;;;;7.70;1.75;;;4.20;99.90;;;;;;5062485;28;20056;-78
2022/12/06 08:13:28;;;;;;;21.48;2.85;;;4.30;99.90;;;;;;5061266;28;20133;-83
2022/12/06 08:15:54;;;;;;;4.03;2.75;;;4.30;99.90;;;;;;5062409;28;20170;-81
2022/12/06 08:18:20;;;;;;;12.63;7.00;;;4.30;99.90;;;;;;5063129;28;20047;-79
2022/12/06 08:20:46;;;;;;;5.15;2.75;;;4.30;99.90;;;;;;5063373;28;20510;-82
2022/12/06 08:23:11;;;;;;;4.35;2.85;;;4.30;99.90;;;;;;5062555;28;20498;-78
2022/12/06 08:25:37;;;;;;;4.25;2.80;;;4.30;99.90;;;;;;5061842;28;20505;-81
2022/12/06 08:28:02;;;;;;;4.03;2.78;;;4.40;99.90;;;;;;5040182;28;20047;-77
2022/12/06 08:30:28;;;;;;;11.07;3.58;;;4.40;99.90;;;;;;5042765;28;20445;-81
2022/12/06 08:32:54;;;;;;;5.85;4.22;;;4.40;99.90;;;;;;5042056;28;20103;-78
2022/12/06 08:35:20;;;;;;;8.82;3.85;;;4.40;99.90;;;;;;5042944;28;20047;-81
2022/12/06 08:37:46;;;;;;;3.63;3.28;;;4.40;99.90;;;;;;5041254;28;20044;-77
2022/12/06 08:40:12;;;;;;;5.28;2.45;;;4.40;99.90;;;;;;5042846;28;20195;-79
2022/12/06 08:42:37;;;;;;;4.47;2.28;;;4.40;99.90;;;;;;5041484;28;20141;-81
2022/12/06 08:45:04;;;;;;;2.67;1.88;;;4.40;99.90;;;;;;5042465;28;20037;-80
2022/12/06 08:47:29;;;;;;;3.22;2.30;;;4.40;99.90;;;;;;5024041;28;20051;-81
2022/12/06 08:49:57;;;;;;;7.45;2.50;;;4.30;99.90;;;;;;5042698;28;20041;-77
2022/12/06 08:52:22;;;;;;;2.38;2.00;;;4.30;99.90;;;;;;5042433;28;20041;-76
2022/12/06 08:54:48;;;;;;;4.88;2.25;;;4.30;99.90;;;;;;5042667;28;20482;-78
2022/12/06 08:57:13;;;;;;;2.38;1.80;;;4.30;99.90;;;;;;5042120;28;20088;-81
2022/12/06 08:59:39;;;;;;;4.05;2.35;;;4.30;99.90;;;;;;5042084;28;20554;-77
2022/12/06 09:02:05;;;;;;;10.02;2.63;;;4.30;99.90;;;;;;5041109;28;20049;-81
2022/12/06 09:04:30;;;;;;;4.30;2.70;;;4.30;99.90;;;;;;5041751;28;20080;-81
2022/12/06 09:06:56;;;;;;;2.67;2.17;;;4.40;99.90;;;;;;5041949;28;20051;-79
2022/12/06 09:09:22;;;;;;;3.08;2.58;;;4.40;99.90;;;;;;5040998;28;20076;-82
2022/12/06 09:11:49;;;;;;;8.35;3.03;;;4.40;99.90;;;;;;5040414;28;20331;-79
2022/12/06 09:14:17;;;;;;;3.72;2.70;;;4.40;99.90;;;;;;5042405;28;20055;-81
2022/12/06 09:16:43;;;;;;;4.68;2.80;;;4.50;99.90;;;;;;5041972;28;20048;-81
2022/12/06 09:19:11;;;;;;;2.65;2.22;;;4.50;99.90;;;;;;5042064;28;20048;-79
2022/12/06 09:21:38;;;;;;;14.25;8.00;;;4.60;99.90;;;;;;5041812;28;20036;-78
2022/12/06 09:24:05;;;;;;;6.63;4.18;;;4.60;99.90;;;;;;5040398;28;20080;-78
2022/12/06 09:26:31;;;;;;;3.13;2.33;;;4.60;99.90;;;;;;5049262;28;20106;-81
2022/12/06 09:28:57;;;;;;;2.15;1.75;;;4.60;99.90;;;;;;5061023;28;20037;-81
2022/12/06 09:31:24;;;;;;;3.92;3.15;;;4.70;99.90;;;;;;5060754;28;20490;-78
2022/12/06 09:33:51;;;;;;;2.53;1.65;;;4.70;99.90;;;;;;5061554;28;20120;-81
2022/12/06 09:36:23;;;;;;;4.90;2.30;;;4.80;99.90;;;;;;5060800;28;20046;-78
2022/12/06 09:38:54;;;;;;;3.20;2.00;;;4.80;99.90;;;;;;5060546;28;20052;-75
2022/12/06 09:41:53;;;;;;;2.70;2.50;;;4.80;99.90;;;;;;5061391;28;20040;-79
2022/12/06 09:44:41;;;;;;;2.15;1.65;;;4.90;99.90;;;;;;5060390;28;20634;-78
2022/12/06 09:47:25;;;;;;;2.53;1.40;;;4.90;99.90;;;;;;5059919;28;20056;-79
2022/12/06 09:50:15;;;;;;;15.55;2.28;;;4.90;99.90;;;;;;5062045;28;20131;-79
2022/12/06 09:52:44;;;;;;;1.90;1.70;;;5.00;99.90;;;;;;5062230;28;20121;-78
2022/12/06 09:55:17;;;;;;;3.45;1.60;;;5.00;99.90;;;;;;5060730;28;20056;-81
2022/12/06 09:57:56;;;;;;;3.55;2.30;;;5.00;99.90;;;;;;5060961;28;20049;-81
2022/12/06 10:00:23;;;;;;;6.07;2.13;;;5.10;99.90;;;;;;5061605;28;20032;-78
2022/12/06 10:03:07;;;;;;;2.80;2.08;;;5.10;99.90;;;;;;5060054;28;20094;-76
2022/12/06 10:05:56;;;;;;;2.78;1.92;;;5.20;99.90;;;;;;5061248;28;20249;-78
2022/12/06 10:08:31;;;;;;;2.38;1.35;;;5.20;99.90;;;;;;5061691;28;20056;-78
2022/12/06 10:11:32;;;;;;;3.67;2.28;;;5.20;99.90;;;;;;5060609;28;20045;-77
2022/12/06 10:14:25;;;;;;;6.38;2.85;;;5.20;99.90;;;;;;5059870;28;20102;-79
2022/12/06 10:17:06;;;;;;;3.45;2.38;;;5.20;99.90;;;;;;5060357;28;20390;-78
2022/12/06 10:19:44;;;;;;;4.00;2.28;;;5.20;99.90;;;;;;5063852;28;20052;-76
2022/12/06 10:22:31;;;;;;;3.10;1.70;;;5.30;99.90;;;;;;5065129;28;20502;-81
2022/12/06 10:25:08;;;;;;;2.35;2.13;;;5.30;99.90;;;;;;5063643;28;20562;-81
2022/12/06 10:27:43;;;;;;;5.43;1.85;;;5.30;99.90;;;;;;5045670;28;20060;-81
2022/12/06 10:30:12;;;;;;;1.85;1.67;;;5.30;99.90;;;;;;5045666;28;20429;-80
2022/12/06 10:32:49;;;;;;;5.70;1.67;;;5.20;99.90;;;;;;5044977;28;20122;-80
2022/12/06 10:35:27;;;;;;;3.60;2.22;;;5.30;99.90;;;;;;5044323;28;20049;-80
2022/12/06 10:37:53;;;;;;;4.03;1.95;;;5.30;99.90;;;;;;5044759;28;20045;-76
2022/12/06 10:40:37;;;;;;;1.13;1.02;;;5.30;99.90;;;;;;5044944;28;20576;-75
2022/12/06 10:43:07;;;;;;;2.50;1.85;;;5.40;99.90;;;;;;5025897;28;20075;-78
2022/12/06 10:48:47;;;;;;;2.58;1.45;;;5.40;99.90;;;;;;5044917;28;20053;-80
2022/12/06 10:51:22;;;;;;;4.65;1.92;;;5.50;99.90;;;;;;5044204;28;20754;-78
2022/12/06 10:53:57;;;;;;;1.23;1.00;;;5.50;99.90;;;;;;5045187;28;20130;-78
2022/12/06 10:56:28;;;;;;;1.20;0.90;;;5.50;99.90;;;;;;5043898;28;20099;-76
2022/12/06 10:59:26;;;;;;;2.78;1.02;;;5.60;99.90;;;;;;5044504;28;20041;-82
2022/12/06 11:01:58;;;;;;;1.80;0.80;;;5.70;99.90;;;;;;5057977;28;20423;-80
2022/12/06 11:04:30;;;;;;;0.95;0.80;;;5.70;99.90;;;;;;5051978;28;20032;-80
2022/12/06 11:07:04;;;;;;;2.90;1.52;;;5.80;99.90;;;;;;5049922;28;20041;-78
2022/12/06 11:09:40;;;;;;;1.20;1.02;;;5.80;99.90;;;;;;5064607;28;20082;-78
2022/12/06 11:12:32;;;;;;;1.92;0.77;;;5.80;99.90;;;;;;5049918;28;20041;-78
2022/12/06 11:15:21;;;;;;;1.27;0.80;;;5.90;99.90;;;;;;5045286;28;20060;-82
2022/12/06 11:17:52;;;;;;;1.35;0.93;;;5.90;99.90;;;;;;5051995;28;20048;-79
2022/12/06 11:20:27;;;;;;;6.15;1.55;;;5.90;99.90;;;;;;5060153;28;20064;-77
2022/12/06 11:23:05;;;;;;;1.17;0.85;;;6.00;99.90;;;;;;5048222;28;20052;-80
2022/12/06 11:25:54;;;;;;;2.40;1.45;;;6.00;99.90;;;;;;5057138;28;20072;-82
2022/12/06 11:28:36;;;;;;;1.15;1.05;;;6.10;99.90;;;;;;5052625;28;20067;-82
2022/12/06 11:31:26;;;;;;;2.40;1.38;;;6.10;99.90;;;;;;5054298;28;20048;-79
2022/12/06 11:33:52;;;;;;;3.13;1.20;;;6.10;99.90;;;;;;5046589;28;20098;-79
2022/12/06 11:36:20;;;;;;;3.90;2.90;;;6.10;99.90;;;;;;5047054;28;20068;-82
2022/12/06 11:38:46;;;;;;;1.40;0.90;;;6.10;99.90;;;;;;5064538;28;20043;-78
2022/12/06 11:41:21;;;;;;;2.33;1.42;;;6.10;99.90;;;;;;5061626;28;20024;-77
2022/12/06 11:43:47;;;;;;;3.13;0.98;;;6.10;99.90;;;;;;5061335;28;20055;-82
2022/12/06 11:46:14;;;;;;;1.90;1.52;;;6.20;99.90;;;;;;5063416;28;20044;-79
2022/12/06 11:48:40;;;;;;;1.60;0.80;;;6.20;99.90;;;;;;5064271;28;20076;-80
2022/12/06 11:51:18;;;;;;;24.55;1.23;;;6.20;99.90;;;;;;5063741;28;20437;-83
2022/12/06 11:54:19;;;;;;;0.70;0.45;;;6.20;99.90;;;;;;5046407;28;20052;-82
2022/12/06 11:56:45;;;;;;;3.85;1.15;;;6.20;99.90;;;;;;5063062;28;20063;-80
2022/12/06 11:59:21;;;;;;;2.05;1.00;;;6.20;99.90;;;;;;5061735;28;20177;-83
2022/12/06 12:01:49;;;;;;;0.63;0.52;;;6.20;99.90;;;;;;5058622;28;20053;-79
2022/12/06 12:04:42;;;;;;;2.75;0.90;;;6.20;99.90;;;;;;5053091;28;20119;-83
2022/12/06 12:07:08;;;;;;;0.70;0.63;;;6.20;99.90;;;;;;5052441;28;20045;-82
2022/12/06 12:09:52;;;;;;;0.60;0.60;;;6.20;99.90;;;;;;5057115;28;20131;-82
2022/12/06 12:13:42;;;;;;;2.33;1.05;;;6.20;99.90;;;;;;5057264;28;20048;-80
2022/12/06 12:15:15;;;;;;;10.02;0.65;;;6.20;99.90;;;;;;5053367;28;20055;-75
2022/12/06 12:17:45;;;;;;;2.40;1.42;;;6.20;99.90;;;;;;5056475;28;20044;-74
2022/12/06 12:20:21;;;;;;;0.70;0.70;;;6.20;99.90;;;;;;5063750;28;20043;-82
2022/12/06 12:22:59;;;;;;;1.67;1.58;;;6.20;99.90;;;;;;5044813;28;20055;-81
2022/12/06 12:25:32;;;;;;;1.75;1.20;;;6.30;99.90;;;;;;5052215;28;20036;-81
2022/12/06 12:28:00;;;;;;;2.15;0.70;;;6.30;99.90;;;;;;5052473;28;20040;-79
2022/12/06 12:30:33;;;;;;;4.22;0.82;;;6.30;99.90;;;;;;5055977;28;20039;-84
2022/12/06 12:33:04;;;;;;;1.77;0.80;;;6.30;99.90;;;;;;5059707;28;20052;-84
2022/12/06 12:35:41;;;;;;;0.60;0.60;;;6.30;99.90;;;;;;5055625;28;20041;-81
2022/12/06 12:38:10;;;;;;;2.83;0.60;;;6.40;99.90;;;;;;5063092;28;20040;-82
2022/12/06 12:40:46;;;;;;;1.77;1.17;;;6.40;99.90;;;;;;5061590;28;20032;-84
2022/12/06 12:43:11;;;;;;;2.47;1.10;;;6.40;99.90;;;;;;5062911;28;20521;-83
2022/12/06 12:45:56;;;;;;;1.23;0.85;;;6.40;99.90;;;;;;5044643;28;20044;-78
2022/12/06 12:48:25;;;;;;;1.65;1.25;;;6.40;99.90;;;;;;5062835;28;20040;-82
2022/12/06 12:50:56;;;;;;;0.55;0.50;;;6.40;99.90;;;;;;5054489;28;20033;-84
2022/12/06 12:53:38;;;;;;;1.20;0.68;;;6.40;99.90;;;;;;5053458;28;20044;-85
2022/12/06 12:56:14;;;;;;;3.50;1.25;;;6.50;99.90;;;;;;5060656;28;20044;-80
2022/12/06 12:58:41;;;;;;;1.20;1.00;;;6.50;99.90;;;;;;5062593;28;20044;-80
2022/12/06 13:01:33;;;;;;;1.23;0.60;;;6.50;99.90;;;;;;5055261;28;20112;-83
2022/12/06 13:04:10;;;;;;;3.40;1.00;;;6.50;99.90;;;;;;5061832;28;20040;-76
2022/12/06 13:06:44;;;;;;;1.80;0.80;;;6.50;99.90;;;;;;5054991;28;20158;-79
2022/12/06 13:09:20;;;;;;;1.08;0.93;;;6.40;99.90;;;;;;5042403;28;20123;-81
2022/12/06 13:11:52;;;;;;;1.92;1.27;;;6.50;99.90;;;;;;5052906;28;20040;-78
2022/12/06 13:14:20;;;;;;;0.85;0.82;;;6.50;99.90;;;;;;5043059;28;20055;-79
2022/12/06 13:16:49;;;;;;;1.65;1.55;;;6.50;99.90;;;;;;5059666;28;20040;-83
2022/12/06 13:19:17;;;;;;;1.55;0.73;;;6.50;99.90;;;;;;5057014;28;20148;-84
2022/12/06 13:21:44;;;;;;;0.52;0.40;;;6.50;99.90;;;;;;5063088;28;20049;-80
2022/12/06 13:24:09;;;;;;;0.50;0.50;;;6.50;99.90;;;;;;5056683;28;20095;-84
2022/12/06 13:26:59;;;;;;;1.33;0.73;;;6.60;99.90;;;;;;5060276;28;20373;-79
2022/12/06 13:29:32;;;;;;;1.20;1.10;;;6.50;99.90;;;;;;5057338;28;20040;-79
2022/12/06 13:32:04;;;;;;;3.10;1.05;;;6.50;99.90;;;;;;5045330;28;20041;-80
2022/12/06 13:34:38;;;;;;;1.95;0.73;;;6.50;99.90;;;;;;5057123;28;20531;-80
2022/12/06 13:37:23;;;;;;;1.38;1.27;;;6.60;99.90;;;;;;5047971;28;20047;-80
2022/12/06 13:39:49;;;;;;;1.33;0.82;;;6.60;99.90;;;;;;5057779;28;20044;-81
2022/12/06 13:42:36;;;;;;;2.08;1.48;;;6.50;99.90;;;;;;5053121;28;20041;-77